sensor_id;sensor_type;location;lat;lon;timestamp;P1;durP1;ratioP1;P2;durP2;ratioP2
71671;SDS011;62112;45.638;11.714;2022-10-31T00:00:00;6.35;;;2.60;;
71671;SDS011;62112;45.638;11.714;2022-10-31T00:02:27;6.15;;;2.83;;
71671;SDS011;62112;45.638;11.714;2022-10-31T00:04:53;6.20;;;2.30;;
71671;SDS011;62112;45.638;11.714;2022-10-31T00:07:19;5.80;;;2.40;;
71671;SDS011;62112;45.638;11.714;2022-10-31T00:09:45;6.73;;;2.70;;
71671;SDS011;62112;45.638;11.714;2022-10-31T00:12:11;6.13;;;2.45;;
71671;SDS011;62112;45.638;11.714;2022-10-31T00:14:36;5.68;;;2.47;;
71671;SDS011;62112;45.638;11.714;2022-10-31T00:17:02;6.07;;;2.60;;
71671;SDS011;62112;45.638;11.714;2022-10-31T00:19:28;5.88;;;2.70;;
71671;SDS011;62112;45.638;11.714;2022-10-31T00:21:54;5.13;;;2.40;;
71671;SDS011;62112;45.638;11.714;2022-10-31T00:24:20;6.05;;;2.60;;
71671;SDS011;62112;45.638;11.714;2022-10-31T00:26:45;6.28;;;2.72;;
71671;SDS011;62112;45.638;11.714;2022-10-31T00:29:11;5.57;;;2.43;;
71671;SDS011;62112;45.638;11.714;2022-10-31T00:31:37;6.70;;;2.58;;
71671;SDS011;62112;45.638;11.714;2022-10-31T00:34:03;5.40;;;2.70;;
71671;SDS011;62112;45.638;11.714;2022-10-31T00:36:29;4.85;;;2.30;;
71671;SDS011;62112;45.638;11.714;2022-10-31T00:38:55;7.13;;;2.70;;
71671;SDS011;62112;45.638;11.714;2022-10-31T00:41:23;5.85;;;2.60;;
71671;SDS011;62112;45.638;11.714;2022-10-31T00:43:48;5.50;;;2.60;;
71671;SDS011;62112;45.638;11.714;2022-10-31T00:46:14;5.10;;;2.70;;
71671;SDS011;62112;45.638;11.714;2022-10-31T00:48:40;6.85;;;2.47;;
71671;SDS011;62112;45.638;11.714;2022-10-31T00:51:07;5.72;;;2.58;;
71671;SDS011;62112;45.638;11.714;2022-10-31T00:53:33;4.93;;;2.55;;
71671;SDS011;62112;45.638;11.714;2022-10-31T00:55:59;5.73;;;2.50;;
71671;SDS011;62112;45.638;11.714;2022-10-31T00:58:25;5.68;;;2.60;;
71671;SDS011;62112;45.638;11.714;2022-10-31T01:00:51;6.22;;;2.78;;
71671;SDS011;62112;45.638;11.714;2022-10-31T01:03:21;5.83;;;2.70;;
71671;SDS011;62112;45.638;11.714;2022-10-31T01:08:33;5.30;;;2.60;;
71671;SDS011;62112;45.638;11.714;2022-10-31T01:11:13;5.68;;;2.45;;
71671;SDS011;62112;45.638;11.714;2022-10-31T01:13:41;5.15;;;2.60;;
71671;SDS011;62112;45.638;11.714;2022-10-31T01:16:08;6.13;;;2.70;;
71671;SDS011;62112;45.638;11.714;2022-10-31T01:18:36;5.00;;;2.40;;
71671;SDS011;62112;45.638;11.714;2022-10-31T01:23:29;5.30;;;2.47;;
71671;SDS011;62112;45.638;11.714;2022-10-31T01:25:59;5.70;;;2.72;;
71671;SDS011;62112;45.638;11.714;2022-10-31T01:28:34;5.47;;;2.60;;
71671;SDS011;62112;45.638;11.714;2022-10-31T01:31:01;5.57;;;2.58;;
71671;SDS011;62112;45.638;11.714;2022-10-31T01:33:29;6.00;;;2.58;;
71671;SDS011;62112;45.638;11.714;2022-10-31T01:35:55;7.47;;;2.70;;
71671;SDS011;62112;45.638;11.714;2022-10-31T01:38:20;5.17;;;2.47;;
71671;SDS011;62112;45.638;11.714;2022-10-31T01:40:47;6.13;;;2.60;;
71671;SDS011;62112;45.638;11.714;2022-10-31T01:43:13;5.13;;;2.63;;
71671;SDS011;62112;45.638;11.714;2022-10-31T01:45:40;5.70;;;2.60;;
71671;SDS011;62112;45.638;11.714;2022-10-31T01:48:11;5.47;;;2.73;;
71671;SDS011;62112;45.638;11.714;2022-10-31T01:50:40;6.00;;;2.50;;
71671;SDS011;62112;45.638;11.714;2022-10-31T01:53:09;5.45;;;2.60;;
71671;SDS011;62112;45.638;11.714;2022-10-31T01:55:39;5.75;;;2.70;;
71671;SDS011;62112;45.638;11.714;2022-10-31T01:58:28;5.75;;;2.70;;
71671;SDS011;62112;45.638;11.714;2022-10-31T02:00:57;6.17;;;2.63;;
71671;SDS011;62112;45.638;11.714;2022-10-31T02:03:25;5.25;;;2.40;;
71671;SDS011;62112;45.638;11.714;2022-10-31T02:05:55;5.35;;;2.40;;
71671;SDS011;62112;45.638;11.714;2022-10-31T02:08:29;5.68;;;2.70;;
71671;SDS011;62112;45.638;11.714;2022-10-31T02:10:56;6.20;;;2.85;;
71671;SDS011;62112;45.638;11.714;2022-10-31T02:13:24;5.60;;;2.60;;
71671;SDS011;62112;45.638;11.714;2022-10-31T02:15:54;5.97;;;2.60;;
71671;SDS011;62112;45.638;11.714;2022-10-31T02:18:23;5.40;;;2.53;;
71671;SDS011;62112;45.638;11.714;2022-10-31T02:21:13;4.82;;;2.42;;
71671;SDS011;62112;45.638;11.714;2022-10-31T02:32:26;5.40;;;2.60;;
71671;SDS011;62112;45.638;11.714;2022-10-31T02:39:53;4.78;;;2.58;;
71671;SDS011;62112;45.638;11.714;2022-10-31T02:42:41;5.10;;;2.42;;
71671;SDS011;62112;45.638;11.714;2022-10-31T02:45:32;5.35;;;2.60;;
71671;SDS011;62112;45.638;11.714;2022-10-31T02:48:09;4.80;;;2.70;;
71671;SDS011;62112;45.638;11.714;2022-10-31T02:50:41;5.60;;;2.67;;
71671;SDS011;62112;45.638;11.714;2022-10-31T02:53:15;5.60;;;2.72;;
71671;SDS011;62112;45.638;11.714;2022-10-31T02:58:21;5.90;;;2.50;;
71671;SDS011;62112;45.638;11.714;2022-10-31T03:01:04;6.43;;;2.50;;
71671;SDS011;62112;45.638;11.714;2022-10-31T03:08:53;5.20;;;2.60;;
71671;SDS011;62112;45.638;11.714;2022-10-31T03:11:37;5.90;;;2.60;;
71671;SDS011;62112;45.638;11.714;2022-10-31T03:14:39;5.13;;;2.67;;
71671;SDS011;62112;45.638;11.714;2022-10-31T03:17:09;5.60;;;2.70;;
71671;SDS011;62112;45.638;11.714;2022-10-31T03:19:42;4.65;;;2.42;;
71671;SDS011;62112;45.638;11.714;2022-10-31T03:22:22;4.80;;;2.50;;
71671;SDS011;62112;45.638;11.714;2022-10-31T03:24:50;4.90;;;2.40;;
71671;SDS011;62112;45.638;11.714;2022-10-31T03:27:21;5.25;;;2.50;;
71671;SDS011;62112;45.638;11.714;2022-10-31T03:29:50;5.10;;;2.47;;
71671;SDS011;62112;45.638;11.714;2022-10-31T03:33:21;5.18;;;2.60;;
71671;SDS011;62112;45.638;11.714;2022-10-31T03:35:17;5.47;;;2.40;;
71671;SDS011;62112;45.638;11.714;2022-10-31T03:37:46;4.63;;;2.35;;
71671;SDS011;62112;45.638;11.714;2022-10-31T03:40:14;5.60;;;2.67;;
71671;SDS011;62112;45.638;11.714;2022-10-31T03:42:46;5.07;;;2.53;;
71671;SDS011;62112;45.638;11.714;2022-10-31T03:45:26;5.18;;;2.50;;
71671;SDS011;62112;45.638;11.714;2022-10-31T03:47:54;4.63;;;2.20;;
71671;SDS011;62112;45.638;11.714;2022-10-31T03:50:23;5.68;;;2.72;;
71671;SDS011;62112;45.638;11.714;2022-10-31T03:52:58;4.80;;;2.38;;
71671;SDS011;62112;45.638;11.714;2022-10-31T03:58:06;5.03;;;2.35;;
71671;SDS011;62112;45.638;11.714;2022-10-31T04:00:38;5.43;;;2.60;;
71671;SDS011;62112;45.638;11.714;2022-10-31T04:03:28;5.90;;;2.72;;
71671;SDS011;62112;45.638;11.714;2022-10-31T04:05:59;5.03;;;2.40;;
71671;SDS011;62112;45.638;11.714;2022-10-31T04:08:29;4.80;;;2.33;;
71671;SDS011;62112;45.638;11.714;2022-10-31T04:10:58;5.18;;;2.50;;
71671;SDS011;62112;45.638;11.714;2022-10-31T04:13:27;4.78;;;2.50;;
71671;SDS011;62112;45.638;11.714;2022-10-31T04:15:55;5.15;;;2.40;;
71671;SDS011;62112;45.638;11.714;2022-10-31T04:18:22;4.70;;;2.33;;
71671;SDS011;62112;45.638;11.714;2022-10-31T04:20:49;5.38;;;2.60;;
71671;SDS011;62112;45.638;11.714;2022-10-31T04:23:25;5.50;;;2.65;;
71671;SDS011;62112;45.638;11.714;2022-10-31T04:25:51;5.20;;;2.47;;
71671;SDS011;62112;45.638;11.714;2022-10-31T04:28:17;5.30;;;2.67;;
71671;SDS011;62112;45.638;11.714;2022-10-31T04:30:44;4.80;;;2.35;;
71671;SDS011;62112;45.638;11.714;2022-10-31T04:33:09;5.85;;;2.70;;
71671;SDS011;62112;45.638;11.714;2022-10-31T04:35:35;4.90;;;2.58;;
71671;SDS011;62112;45.638;11.714;2022-10-31T04:38:01;5.43;;;2.57;;
71671;SDS011;62112;45.638;11.714;2022-10-31T04:40:27;5.30;;;2.50;;
71671;SDS011;62112;45.638;11.714;2022-10-31T04:42:53;5.60;;;2.60;;
71671;SDS011;62112;45.638;11.714;2022-10-31T04:45:19;4.97;;;2.30;;
71671;SDS011;62112;45.638;11.714;2022-10-31T04:47:45;5.97;;;2.40;;
71671;SDS011;62112;45.638;11.714;2022-10-31T04:50:11;5.38;;;2.40;;
71671;SDS011;62112;45.638;11.714;2022-10-31T04:52:43;4.67;;;2.20;;
71671;SDS011;62112;45.638;11.714;2022-10-31T04:55:11;4.70;;;2.25;;
71671;SDS011;62112;45.638;11.714;2022-10-31T04:57:43;5.15;;;2.58;;
71671;SDS011;62112;45.638;11.714;2022-10-31T05:00:11;5.45;;;2.58;;
71671;SDS011;62112;45.638;11.714;2022-10-31T05:02:45;4.90;;;2.67;;
71671;SDS011;62112;45.638;11.714;2022-10-31T05:05:16;4.73;;;2.50;;
71671;SDS011;62112;45.638;11.714;2022-10-31T05:07:45;5.22;;;2.38;;
71671;SDS011;62112;45.638;11.714;2022-10-31T05:10:12;5.00;;;2.30;;
71671;SDS011;62112;45.638;11.714;2022-10-31T05:12:50;5.20;;;2.42;;
71671;SDS011;62112;45.638;11.714;2022-10-31T05:15:18;5.40;;;2.40;;
71671;SDS011;62112;45.638;11.714;2022-10-31T05:17:46;4.70;;;2.23;;
71671;SDS011;62112;45.638;11.714;2022-10-31T05:20:12;4.80;;;2.40;;
71671;SDS011;62112;45.638;11.714;2022-10-31T05:22:46;4.80;;;2.38;;
71671;SDS011;62112;45.638;11.714;2022-10-31T05:25:14;5.55;;;2.42;;
71671;SDS011;62112;45.638;11.714;2022-10-31T05:27:41;4.25;;;2.22;;
71671;SDS011;62112;45.638;11.714;2022-10-31T05:30:08;5.03;;;2.50;;
71671;SDS011;62112;45.638;11.714;2022-10-31T05:32:37;5.22;;;2.60;;
71671;SDS011;62112;45.638;11.714;2022-10-31T05:35:07;5.05;;;2.20;;
71671;SDS011;62112;45.638;11.714;2022-10-31T05:37:34;5.30;;;2.47;;
71671;SDS011;62112;45.638;11.714;2022-10-31T05:40:01;4.65;;;2.38;;
71671;SDS011;62112;45.638;11.714;2022-10-31T05:42:28;5.47;;;2.50;;
71671;SDS011;62112;45.638;11.714;2022-10-31T05:44:54;4.85;;;2.47;;
71671;SDS011;62112;45.638;11.714;2022-10-31T05:47:20;4.70;;;2.38;;
71671;SDS011;62112;45.638;11.714;2022-10-31T05:49:45;6.57;;;2.50;;
71671;SDS011;62112;45.638;11.714;2022-10-31T05:52:11;5.18;;;2.63;;
71671;SDS011;62112;45.638;11.714;2022-10-31T05:54:37;5.63;;;2.50;;
71671;SDS011;62112;45.638;11.714;2022-10-31T05:57:03;5.70;;;2.47;;
71671;SDS011;62112;45.638;11.714;2022-10-31T05:59:29;5.10;;;2.55;;
71671;SDS011;62112;45.638;11.714;2022-10-31T06:01:54;5.20;;;2.45;;
71671;SDS011;62112;45.638;11.714;2022-10-31T06:04:20;4.20;;;2.20;;
71671;SDS011;62112;45.638;11.714;2022-10-31T06:06:46;6.07;;;2.20;;
71671;SDS011;62112;45.638;11.714;2022-10-31T06:09:12;4.95;;;2.40;;
71671;SDS011;62112;45.638;11.714;2022-10-31T06:11:38;4.70;;;2.30;;
71671;SDS011;62112;45.638;11.714;2022-10-31T06:14:04;5.25;;;2.50;;
71671;SDS011;62112;45.638;11.714;2022-10-31T06:16:30;5.10;;;2.45;;
71671;SDS011;62112;45.638;11.714;2022-10-31T06:18:56;5.73;;;2.40;;
71671;SDS011;62112;45.638;11.714;2022-10-31T06:21:22;4.80;;;2.35;;
71671;SDS011;62112;45.638;11.714;2022-10-31T06:23:48;5.10;;;2.40;;
71671;SDS011;62112;45.638;11.714;2022-10-31T06:26:14;4.40;;;2.20;;
71671;SDS011;62112;45.638;11.714;2022-10-31T06:28:40;5.25;;;2.60;;
71671;SDS011;62112;45.638;11.714;2022-10-31T06:31:06;5.07;;;2.17;;
71671;SDS011;62112;45.638;11.714;2022-10-31T06:33:32;5.53;;;2.40;;
71671;SDS011;62112;45.638;11.714;2022-10-31T06:35:59;4.95;;;2.25;;
71671;SDS011;62112;45.638;11.714;2022-10-31T06:38:25;4.78;;;2.20;;
71671;SDS011;62112;45.638;11.714;2022-10-31T06:40:52;5.55;;;2.25;;
71671;SDS011;62112;45.638;11.714;2022-10-31T06:43:19;5.40;;;2.40;;
71671;SDS011;62112;45.638;11.714;2022-10-31T06:45:46;6.65;;;2.25;;
71671;SDS011;62112;45.638;11.714;2022-10-31T06:48:12;5.85;;;2.40;;
71671;SDS011;62112;45.638;11.714;2022-10-31T06:50:38;6.63;;;2.67;;
71671;SDS011;62112;45.638;11.714;2022-10-31T06:53:04;6.72;;;2.53;;
71671;SDS011;62112;45.638;11.714;2022-10-31T06:55:30;7.60;;;2.80;;
71671;SDS011;62112;45.638;11.714;2022-10-31T06:57:56;7.35;;;2.42;;
71671;SDS011;62112;45.638;11.714;2022-10-31T07:00:24;5.43;;;2.10;;
71671;SDS011;62112;45.638;11.714;2022-10-31T07:02:58;5.72;;;2.45;;
71671;SDS011;62112;45.638;11.714;2022-10-31T07:05:33;6.10;;;2.57;;
71671;SDS011;62112;45.638;11.714;2022-10-31T07:08:11;6.22;;;2.25;;
71671;SDS011;62112;45.638;11.714;2022-10-31T07:10:39;6.82;;;2.20;;
71671;SDS011;62112;45.638;11.714;2022-10-31T07:13:09;5.60;;;2.30;;
71671;SDS011;62112;45.638;11.714;2022-10-31T07:15:37;4.97;;;2.40;;
71671;SDS011;62112;45.638;11.714;2022-10-31T07:18:07;5.77;;;2.23;;
71671;SDS011;62112;45.638;11.714;2022-10-31T07:20:37;4.85;;;2.08;;
71671;SDS011;62112;45.638;11.714;2022-10-31T07:23:03;6.15;;;2.30;;
71671;SDS011;62112;45.638;11.714;2022-10-31T07:25:29;5.70;;;2.42;;
71671;SDS011;62112;45.638;11.714;2022-10-31T07:27:55;7.23;;;2.40;;
71671;SDS011;62112;45.638;11.714;2022-10-31T07:30:21;5.45;;;2.47;;
71671;SDS011;62112;45.638;11.714;2022-10-31T07:32:48;6.07;;;2.60;;
71671;SDS011;62112;45.638;11.714;2022-10-31T07:35:16;6.22;;;2.65;;
71671;SDS011;62112;45.638;11.714;2022-10-31T07:37:43;6.03;;;2.43;;
71671;SDS011;62112;45.638;11.714;2022-10-31T07:40:09;5.28;;;2.30;;
71671;SDS011;62112;45.638;11.714;2022-10-31T07:42:39;6.00;;;2.22;;
71671;SDS011;62112;45.638;11.714;2022-10-31T07:45:07;5.80;;;2.42;;
71671;SDS011;62112;45.638;11.714;2022-10-31T07:47:42;6.38;;;2.45;;
71671;SDS011;62112;45.638;11.714;2022-10-31T07:50:13;6.63;;;2.47;;
71671;SDS011;62112;45.638;11.714;2022-10-31T07:52:40;5.90;;;2.47;;
71671;SDS011;62112;45.638;11.714;2022-10-31T07:55:07;7.20;;;2.42;;
71671;SDS011;62112;45.638;11.714;2022-10-31T07:57:33;5.78;;;2.60;;
71671;SDS011;62112;45.638;11.714;2022-10-31T07:59:59;6.10;;;2.50;;
71671;SDS011;62112;45.638;11.714;2022-10-31T08:02:25;6.50;;;2.55;;
71671;SDS011;62112;45.638;11.714;2022-10-31T08:04:51;6.07;;;2.60;;
71671;SDS011;62112;45.638;11.714;2022-10-31T08:07:17;7.53;;;2.63;;
71671;SDS011;62112;45.638;11.714;2022-10-31T08:09:43;6.43;;;2.67;;
71671;SDS011;62112;45.638;11.714;2022-10-31T08:12:10;6.30;;;2.75;;
71671;SDS011;62112;45.638;11.714;2022-10-31T08:14:35;6.50;;;2.65;;
71671;SDS011;62112;45.638;11.714;2022-10-31T08:17:01;5.83;;;2.70;;
71671;SDS011;62112;45.638;11.714;2022-10-31T08:19:27;7.38;;;2.60;;
71671;SDS011;62112;45.638;11.714;2022-10-31T08:21:53;6.53;;;2.50;;
71671;SDS011;62112;45.638;11.714;2022-10-31T08:24:23;8.38;;;2.85;;
71671;SDS011;62112;45.638;11.714;2022-10-31T08:26:49;5.07;;;2.50;;
71671;SDS011;62112;45.638;11.714;2022-10-31T08:29:15;6.00;;;2.60;;
71671;SDS011;62112;45.638;11.714;2022-10-31T08:31:41;8.80;;;2.65;;
71671;SDS011;62112;45.638;11.714;2022-10-31T08:34:07;6.00;;;2.60;;
71671;SDS011;62112;45.638;11.714;2022-10-31T08:36:33;6.57;;;2.70;;
71671;SDS011;62112;45.638;11.714;2022-10-31T08:38:59;6.60;;;2.75;;
71671;SDS011;62112;45.638;11.714;2022-10-31T08:41:25;5.40;;;2.35;;
71671;SDS011;62112;45.638;11.714;2022-10-31T08:43:51;6.67;;;2.53;;
71671;SDS011;62112;45.638;11.714;2022-10-31T08:46:17;6.78;;;2.50;;
71671;SDS011;62112;45.638;11.714;2022-10-31T08:48:43;6.65;;;2.60;;
71671;SDS011;62112;45.638;11.714;2022-10-31T08:51:09;7.53;;;2.43;;
71671;SDS011;62112;45.638;11.714;2022-10-31T08:53:35;5.85;;;2.40;;
71671;SDS011;62112;45.638;11.714;2022-10-31T08:56:01;6.00;;;2.40;;
71671;SDS011;62112;45.638;11.714;2022-10-31T08:58:27;6.28;;;2.35;;
71671;SDS011;62112;45.638;11.714;2022-10-31T09:00:53;6.37;;;2.80;;
71671;SDS011;62112;45.638;11.714;2022-10-31T09:03:25;6.88;;;2.67;;
71671;SDS011;62112;45.638;11.714;2022-10-31T09:05:56;5.85;;;2.40;;
71671;SDS011;62112;45.638;11.714;2022-10-31T09:08:23;6.15;;;2.53;;
71671;SDS011;62112;45.638;11.714;2022-10-31T09:10:49;5.45;;;2.58;;
71671;SDS011;62112;45.638;11.714;2022-10-31T09:13:16;8.40;;;2.60;;
71671;SDS011;62112;45.638;11.714;2022-10-31T09:15:44;5.80;;;2.40;;
71671;SDS011;62112;45.638;11.714;2022-10-31T09:18:13;5.45;;;2.40;;
71671;SDS011;62112;45.638;11.714;2022-10-31T09:20:42;4.93;;;2.25;;
71671;SDS011;62112;45.638;11.714;2022-10-31T09:23:12;5.50;;;2.47;;
71671;SDS011;62112;45.638;11.714;2022-10-31T09:25:39;5.40;;;2.20;;
71671;SDS011;62112;45.638;11.714;2022-10-31T09:28:06;5.78;;;2.47;;
71671;SDS011;62112;45.638;11.714;2022-10-31T09:30:35;5.43;;;2.50;;
71671;SDS011;62112;45.638;11.714;2022-10-31T09:33:02;6.15;;;2.70;;
71671;SDS011;62112;45.638;11.714;2022-10-31T09:35:34;5.27;;;2.50;;
71671;SDS011;62112;45.638;11.714;2022-10-31T09:38:03;4.88;;;2.22;;
71671;SDS011;62112;45.638;11.714;2022-10-31T09:40:47;5.70;;;2.38;;
71671;SDS011;62112;45.638;11.714;2022-10-31T09:51:48;6.38;;;2.60;;
71671;SDS011;62112;45.638;11.714;2022-10-31T09:57:30;7.38;;;2.50;;
71671;SDS011;62112;45.638;11.714;2022-10-31T09:59:59;5.88;;;2.50;;
71671;SDS011;62112;45.638;11.714;2022-10-31T10:02:30;6.87;;;2.60;;
71671;SDS011;62112;45.638;11.714;2022-10-31T10:05:04;5.70;;;2.30;;
71671;SDS011;62112;45.638;11.714;2022-10-31T10:07:40;5.00;;;2.30;;
71671;SDS011;62112;45.638;11.714;2022-10-31T10:18:29;5.93;;;2.40;;
71671;SDS011;62112;45.638;11.714;2022-10-31T10:32:58;6.22;;;2.58;;
71671;SDS011;62112;45.638;11.714;2022-10-31T10:35:47;6.75;;;2.10;;
71671;SDS011;62112;45.638;11.714;2022-10-31T10:38:30;5.35;;;2.33;;
71671;SDS011;62112;45.638;11.714;2022-10-31T10:41:10;5.72;;;2.38;;
71671;SDS011;62112;45.638;11.714;2022-10-31T10:43:54;7.17;;;2.30;;
71671;SDS011;62112;45.638;11.714;2022-10-31T10:46:42;6.50;;;2.10;;
71671;SDS011;62112;45.638;11.714;2022-10-31T10:49:44;5.47;;;2.20;;
71671;SDS011;62112;45.638;11.714;2022-10-31T10:52:41;4.32;;;2.10;;
71671;SDS011;62112;45.638;11.714;2022-10-31T10:58:22;5.87;;;2.00;;
71671;SDS011;62112;45.638;11.714;2022-10-31T11:00:53;6.13;;;2.28;;
71671;SDS011;62112;45.638;11.714;2022-10-31T11:03:43;5.35;;;2.05;;
71671;SDS011;62112;45.638;11.714;2022-10-31T11:06:30;5.95;;;2.22;;
71671;SDS011;62112;45.638;11.714;2022-10-31T11:09:08;5.05;;;2.35;;
71671;SDS011;62112;45.638;11.714;2022-10-31T11:11:47;5.37;;;2.40;;
71671;SDS011;62112;45.638;11.714;2022-10-31T11:14:15;6.60;;;2.42;;
71671;SDS011;62112;45.638;11.714;2022-10-31T11:16:48;7.68;;;2.72;;
71671;SDS011;62112;45.638;11.714;2022-10-31T11:21:54;5.50;;;2.63;;
71671;SDS011;62112;45.638;11.714;2022-10-31T11:24:44;6.60;;;2.30;;
71671;SDS011;62112;45.638;11.714;2022-10-31T11:27:16;6.38;;;2.85;;
71671;SDS011;62112;45.638;11.714;2022-10-31T11:29:47;5.93;;;2.58;;
71671;SDS011;62112;45.638;11.714;2022-10-31T11:32:19;6.90;;;2.80;;
71671;SDS011;62112;45.638;11.714;2022-10-31T11:34:53;7.97;;;2.95;;
71671;SDS011;62112;45.638;11.714;2022-10-31T11:37:27;6.87;;;2.90;;
71671;SDS011;62112;45.638;11.714;2022-10-31T11:40:03;5.70;;;2.80;;
71671;SDS011;62112;45.638;11.714;2022-10-31T11:42:41;5.85;;;2.85;;
71671;SDS011;62112;45.638;11.714;2022-10-31T11:45:19;6.50;;;3.05;;
71671;SDS011;62112;45.638;11.714;2022-10-31T11:47:56;7.00;;;2.95;;
71671;SDS011;62112;45.638;11.714;2022-10-31T11:50:24;7.10;;;3.00;;
71671;SDS011;62112;45.638;11.714;2022-10-31T11:52:57;7.03;;;2.92;;
71671;SDS011;62112;45.638;11.714;2022-10-31T11:57:55;7.03;;;2.92;;
71671;SDS011;62112;45.638;11.714;2022-10-31T12:00:22;5.28;;;2.80;;
71671;SDS011;62112;45.638;11.714;2022-10-31T12:05:44;6.05;;;3.10;;
71671;SDS011;62112;45.638;11.714;2022-10-31T12:08:12;6.80;;;2.80;;
71671;SDS011;62112;45.638;11.714;2022-10-31T12:13:32;7.28;;;2.90;;
71671;SDS011;62112;45.638;11.714;2022-10-31T12:16:00;7.27;;;2.70;;
71671;SDS011;62112;45.638;11.714;2022-10-31T12:21:34;7.80;;;2.85;;
71671;SDS011;62112;45.638;11.714;2022-10-31T12:27:22;9.43;;;3.10;;
71671;SDS011;62112;45.638;11.714;2022-10-31T12:32:56;7.53;;;3.10;;
71671;SDS011;62112;45.638;11.714;2022-10-31T12:44:03;9.73;;;4.13;;
71671;SDS011;62112;45.638;11.714;2022-10-31T12:49:17;8.50;;;3.80;;
71671;SDS011;62112;45.638;11.714;2022-10-31T13:07:16;8.00;;;4.20;;
71671;SDS011;62112;45.638;11.714;2022-10-31T13:09:50;8.43;;;3.70;;
71671;SDS011;62112;45.638;11.714;2022-10-31T13:12:31;8.82;;;3.55;;
71671;SDS011;62112;45.638;11.714;2022-10-31T13:18:13;9.80;;;3.80;;
71671;SDS011;62112;45.638;11.714;2022-10-31T13:20:48;7.70;;;3.58;;
71671;SDS011;62112;45.638;11.714;2022-10-31T13:23:31;6.60;;;3.30;;
71671;SDS011;62112;45.638;11.714;2022-10-31T13:26:01;7.38;;;3.15;;
71671;SDS011;62112;45.638;11.714;2022-10-31T13:31:26;7.40;;;3.20;;
71671;SDS011;62112;45.638;11.714;2022-10-31T13:33:55;7.90;;;3.10;;
71671;SDS011;62112;45.638;11.714;2022-10-31T13:36:47;7.45;;;2.90;;
71671;SDS011;62112;45.638;11.714;2022-10-31T13:39:40;6.93;;;2.90;;
71671;SDS011;62112;45.638;11.714;2022-10-31T13:42:34;6.93;;;3.00;;
71671;SDS011;62112;45.638;11.714;2022-10-31T13:45:21;8.40;;;2.90;;
71671;SDS011;62112;45.638;11.714;2022-10-31T13:48:17;7.07;;;2.67;;
71671;SDS011;62112;45.638;11.714;2022-10-31T13:51:05;7.00;;;2.63;;
71671;SDS011;62112;45.638;11.714;2022-10-31T13:58:36;6.40;;;2.65;;
71671;SDS011;62112;45.638;11.714;2022-10-31T14:03:32;8.05;;;3.20;;
71671;SDS011;62112;45.638;11.714;2022-10-31T14:06:01;6.20;;;2.63;;
71671;SDS011;62112;45.638;11.714;2022-10-31T14:08:27;8.02;;;2.80;;
71671;SDS011;62112;45.638;11.714;2022-10-31T14:10:56;6.90;;;2.63;;
71671;SDS011;62112;45.638;11.714;2022-10-31T14:13:24;6.47;;;2.60;;
71671;SDS011;62112;45.638;11.714;2022-10-31T14:16:01;5.93;;;2.70;;
71671;SDS011;62112;45.638;11.714;2022-10-31T14:18:33;6.05;;;2.65;;
71671;SDS011;62112;45.638;11.714;2022-10-31T14:21:13;5.13;;;2.42;;
71671;SDS011;62112;45.638;11.714;2022-10-31T14:23:42;7.10;;;2.85;;
71671;SDS011;62112;45.638;11.714;2022-10-31T14:26:29;5.87;;;2.60;;
71671;SDS011;62112;45.638;11.714;2022-10-31T14:29:22;6.65;;;2.67;;
71671;SDS011;62112;45.638;11.714;2022-10-31T14:34:22;5.75;;;2.65;;
71671;SDS011;62112;45.638;11.714;2022-10-31T14:42:39;6.53;;;2.50;;
71671;SDS011;62112;45.638;11.714;2022-10-31T14:50:48;7.10;;;2.75;;
71671;SDS011;62112;45.638;11.714;2022-10-31T14:53:44;6.73;;;2.60;;
71671;SDS011;62112;45.638;11.714;2022-10-31T14:56:19;5.90;;;2.58;;
71671;SDS011;62112;45.638;11.714;2022-10-31T14:59:03;6.00;;;2.42;;
71671;SDS011;62112;45.638;11.714;2022-10-31T15:01:38;7.43;;;2.70;;
71671;SDS011;62112;45.638;11.714;2022-10-31T15:04:07;6.13;;;2.80;;
71671;SDS011;62112;45.638;11.714;2022-10-31T15:06:45;5.47;;;2.50;;
71671;SDS011;62112;45.638;11.714;2022-10-31T15:09:21;8.18;;;2.40;;
71671;SDS011;62112;45.638;11.714;2022-10-31T15:11:49;5.97;;;2.50;;
71671;SDS011;62112;45.638;11.714;2022-10-31T15:14:23;6.68;;;2.80;;
71671;SDS011;62112;45.638;11.714;2022-10-31T15:16:50;5.18;;;2.40;;
71671;SDS011;62112;45.638;11.714;2022-10-31T15:19:20;8.27;;;2.60;;
71671;SDS011;62112;45.638;11.714;2022-10-31T15:21:52;6.70;;;2.45;;
71671;SDS011;62112;45.638;11.714;2022-10-31T15:24:19;6.60;;;2.75;;
71671;SDS011;62112;45.638;11.714;2022-10-31T15:26:49;6.07;;;2.53;;
71671;SDS011;62112;45.638;11.714;2022-10-31T15:29:22;5.80;;;2.50;;
71671;SDS011;62112;45.638;11.714;2022-10-31T15:31:50;7.40;;;2.50;;
71671;SDS011;62112;45.638;11.714;2022-10-31T15:34:29;5.63;;;2.45;;
71671;SDS011;62112;45.638;11.714;2022-10-31T15:37:09;5.68;;;2.63;;
71671;SDS011;62112;45.638;11.714;2022-10-31T15:39:38;6.28;;;2.63;;
71671;SDS011;62112;45.638;11.714;2022-10-31T15:42:05;8.55;;;2.67;;
71671;SDS011;62112;45.638;11.714;2022-10-31T15:44:52;6.47;;;2.53;;
71671;SDS011;62112;45.638;11.714;2022-10-31T15:47:44;5.63;;;2.72;;
71671;SDS011;62112;45.638;11.714;2022-10-31T15:50:21;6.05;;;2.55;;
71671;SDS011;62112;45.638;11.714;2022-10-31T15:52:52;6.47;;;2.60;;
71671;SDS011;62112;45.638;11.714;2022-10-31T15:55:19;4.90;;;2.45;;
71671;SDS011;62112;45.638;11.714;2022-10-31T15:57:48;6.47;;;2.67;;
71671;SDS011;62112;45.638;11.714;2022-10-31T16:00:35;6.93;;;2.65;;
71671;SDS011;62112;45.638;11.714;2022-10-31T16:03:07;6.30;;;2.30;;
71671;SDS011;62112;45.638;11.714;2022-10-31T16:05:39;7.15;;;2.78;;
71671;SDS011;62112;45.638;11.714;2022-10-31T16:10:54;6.40;;;2.40;;
71671;SDS011;62112;45.638;11.714;2022-10-31T16:13:30;6.03;;;2.53;;
71671;SDS011;62112;45.638;11.714;2022-10-31T16:16:01;6.18;;;2.58;;
71671;SDS011;62112;45.638;11.714;2022-10-31T16:18:41;7.00;;;2.80;;
71671;SDS011;62112;45.638;11.714;2022-10-31T16:21:08;5.93;;;2.67;;
71671;SDS011;62112;45.638;11.714;2022-10-31T16:23:35;6.17;;;2.73;;
71671;SDS011;62112;45.638;11.714;2022-10-31T16:26:07;6.45;;;2.58;;
71671;SDS011;62112;45.638;11.714;2022-10-31T16:28:33;6.97;;;2.55;;
71671;SDS011;62112;45.638;11.714;2022-10-31T16:31:00;6.63;;;2.63;;
71671;SDS011;62112;45.638;11.714;2022-10-31T16:33:37;7.65;;;2.40;;
71671;SDS011;62112;45.638;11.714;2022-10-31T16:38:56;7.15;;;2.80;;
71671;SDS011;62112;45.638;11.714;2022-10-31T16:41:25;8.48;;;2.70;;
71671;SDS011;62112;45.638;11.714;2022-10-31T16:43:51;7.45;;;2.70;;
71671;SDS011;62112;45.638;11.714;2022-10-31T16:46:22;6.40;;;2.67;;
71671;SDS011;62112;45.638;11.714;2022-10-31T16:48:49;7.43;;;2.60;;
71671;SDS011;62112;45.638;11.714;2022-10-31T16:51:15;8.32;;;2.60;;
71671;SDS011;62112;45.638;11.714;2022-10-31T16:53:41;6.10;;;2.80;;
71671;SDS011;62112;45.638;11.714;2022-10-31T16:56:11;6.90;;;2.87;;
71671;SDS011;62112;45.638;11.714;2022-10-31T16:58:45;6.77;;;2.80;;
71671;SDS011;62112;45.638;11.714;2022-10-31T17:01:11;6.57;;;2.90;;
71671;SDS011;62112;45.638;11.714;2022-10-31T17:03:38;6.13;;;3.00;;
71671;SDS011;62112;45.638;11.714;2022-10-31T17:06:04;6.32;;;2.88;;
71671;SDS011;62112;45.638;11.714;2022-10-31T17:08:30;6.70;;;3.00;;
71671;SDS011;62112;45.638;11.714;2022-10-31T17:10:58;6.63;;;3.10;;
71671;SDS011;62112;45.638;11.714;2022-10-31T17:13:25;6.13;;;3.17;;
71671;SDS011;62112;45.638;11.714;2022-10-31T17:15:54;6.90;;;2.90;;
71671;SDS011;62112;45.638;11.714;2022-10-31T17:18:22;6.20;;;2.67;;